createdAt,value
2022-09-23T00:00:34.477Z,2.15
2022-09-23T00:03:01.623Z,2.35
2022-09-23T00:05:30.010Z,2.63
2022-09-23T00:07:57.681Z,2.55
2022-09-23T00:10:25.411Z,2.47
2022-09-23T00:12:52.635Z,2.08
2022-09-23T00:15:19.676Z,2.13
2022-09-23T00:17:47.594Z,2.05
2022-09-23T00:20:15.141Z,2.10
2022-09-23T00:22:42.327Z,2.03
2022-09-23T00:25:10.618Z,2.17
2022-09-23T00:27:38.148Z,2.30
2022-09-23T00:30:06.987Z,2.25
2022-09-23T00:32:34.550Z,2.90
2022-09-23T00:35:03.995Z,2.53
2022-09-23T00:37:31.640Z,2.40
2022-09-23T00:39:59.689Z,2.00
2022-09-23T00:42:26.797Z,2.30
2022-09-23T00:44:55.247Z,2.33
2022-09-23T00:47:24.486Z,2.40
2022-09-23T00:50:01.652Z,2.50
2022-09-23T00:52:29.278Z,2.22
2022-09-23T00:54:59.166Z,2.30
2022-09-23T00:57:27.322Z,2.17
2022-09-23T00:59:55.068Z,2.60
2022-09-23T01:02:22.437Z,2.63
2022-09-23T01:04:51.169Z,2.25
2022-09-23T01:07:18.597Z,2.50
2022-09-23T01:09:46.219Z,2.25
2022-09-23T01:12:31.553Z,2.17
2022-09-23T01:15:08.226Z,2.60
2022-09-23T01:17:40.290Z,2.78
2022-09-23T01:20:26.190Z,2.60
2022-09-23T01:22:59.635Z,2.33
2022-09-23T01:28:13.363Z,2.42
2022-09-23T01:30:47.589Z,2.50
2022-09-23T01:33:43.732Z,2.35
2022-09-23T01:36:15.515Z,2.40
2022-09-23T01:38:46.334Z,2.25
2022-09-23T01:41:17.956Z,2.53
2022-09-23T01:43:50.551Z,2.08
2022-09-23T01:46:20.014Z,2.50
2022-09-23T01:49:00.190Z,2.25
2022-09-23T01:51:34.016Z,2.95
2022-09-23T01:54:08.039Z,2.80
2022-09-23T01:56:38.669Z,2.20
2022-09-23T01:59:15.098Z,2.50
2022-09-23T02:01:55.411Z,2.40
2022-09-23T02:04:31.090Z,2.28
2022-09-23T02:07:00.979Z,2.97
2022-09-23T02:09:36.253Z,2.15
2022-09-23T02:12:06.003Z,2.63
2022-09-23T02:14:36.192Z,2.90
2022-09-23T02:17:08.567Z,2.42
2022-09-23T02:19:43.902Z,2.30
2022-09-23T02:22:26.647Z,2.20
2022-09-23T02:24:54.887Z,2.38
2022-09-23T02:27:29.545Z,2.17
2022-09-23T02:30:06.293Z,2.67
2022-09-23T02:32:42.969Z,2.20
2022-09-23T02:35:19.420Z,2.47
2022-09-23T02:37:49.327Z,2.45
2022-09-23T02:40:23.365Z,2.45
2022-09-23T02:42:57.776Z,2.53
2022-09-23T02:45:25.248Z,2.50
2022-09-23T02:47:53.983Z,2.42
2022-09-23T02:50:22.662Z,2.63
2022-09-23T02:52:50.001Z,2.60
2022-09-23T02:55:18.705Z,2.60
2022-09-23T02:57:47.081Z,2.88
2022-09-23T03:00:14.395Z,2.50
2022-09-23T03:02:51.029Z,2.72
2022-09-23T03:05:31.407Z,2.72
2022-09-23T03:08:06.484Z,2.65
2022-09-23T03:10:33.866Z,2.33
2022-09-23T03:13:04.584Z,2.72
2022-09-23T03:15:36.237Z,3.17
2022-09-23T03:18:31.581Z,2.42
2022-09-23T03:21:10.133Z,2.55
2022-09-23T03:23:38.728Z,2.47
2022-09-23T03:26:35.162Z,2.35
2022-09-23T03:29:09.114Z,2.58
2022-09-23T03:31:37.215Z,2.70
2022-09-23T03:34:05.824Z,2.53
2022-09-23T03:36:51.936Z,2.70
2022-09-23T03:39:32.128Z,2.78
2022-09-23T03:42:00.962Z,2.72
2022-09-23T03:44:29.746Z,2.17
2022-09-23T03:47:00.188Z,2.85
2022-09-23T03:49:29.165Z,2.60
2022-09-23T03:51:57.029Z,2.40
2022-09-23T03:54:24.023Z,3.15
2022-09-23T03:56:51.326Z,2.35
2022-09-23T03:59:18.399Z,2.80
2022-09-23T04:01:46.571Z,2.53
2022-09-23T04:04:14.072Z,2.40
2022-09-23T04:06:41.271Z,3.45
2022-09-23T04:09:08.530Z,2.80
2022-09-23T04:11:36.873Z,2.58
2022-09-23T04:14:04.455Z,2.45
2022-09-23T04:16:32.178Z,2.90
2022-09-23T04:18:59.515Z,2.35
2022-09-23T04:21:27.687Z,3.10
2022-09-23T04:23:54.874Z,3.30
2022-09-23T04:26:22.081Z,2.90
2022-09-23T04:28:49.107Z,3.00
2022-09-23T04:31:16.166Z,2.95
2022-09-23T04:33:43.281Z,3.20
2022-09-23T04:36:10.275Z,3.20
2022-09-23T04:38:37.325Z,3.20
2022-09-23T04:41:04.416Z,3.50
2022-09-23T04:43:31.460Z,3.40
2022-09-23T04:46:02.196Z,3.25
2022-09-23T04:48:29.719Z,3.78
2022-09-23T04:51:04.085Z,4.55
2022-09-23T04:53:31.527Z,4.97
2022-09-23T04:56:02.587Z,4.47
2022-09-23T04:58:30.011Z,5.22
2022-09-23T05:01:04.967Z,4.82
2022-09-23T05:03:35.585Z,5.55
2022-09-23T05:06:02.776Z,5.85
2022-09-23T05:08:30.118Z,5.20
2022-09-23T05:10:58.274Z,5.38
2022-09-23T05:13:26.015Z,5.85
2022-09-23T05:16:03.604Z,6.35
2022-09-23T05:18:37.306Z,5.53
2022-09-23T05:21:04.825Z,6.80
2022-09-23T05:23:31.912Z,6.30
2022-09-23T05:26:01.966Z,6.88
2022-09-23T05:28:31.216Z,7.93
2022-09-23T05:31:05.227Z,7.95
2022-09-23T05:33:33.080Z,7.38
2022-09-23T05:36:00.840Z,8.30
2022-09-23T05:38:31.496Z,7.38
2022-09-23T05:40:59.451Z,6.65
2022-09-23T05:43:27.307Z,8.18
2022-09-23T05:46:08.530Z,8.30
2022-09-23T05:48:36.963Z,7.43
2022-09-23T05:51:04.699Z,7.45
2022-09-23T05:53:31.926Z,8.05
2022-09-23T05:55:58.994Z,7.45
2022-09-23T05:58:27.732Z,7.85
2022-09-23T06:00:56.616Z,7.15
2022-09-23T06:03:24.856Z,7.70
2022-09-23T06:05:55.241Z,8.23
2022-09-23T06:08:22.776Z,7.93
2022-09-23T06:10:54.316Z,8.07
2022-09-23T06:13:22.183Z,7.93
2022-09-23T06:15:49.224Z,8.00
2022-09-23T06:18:17.194Z,8.50
2022-09-23T06:20:44.383Z,8.25
2022-09-23T06:23:12.174Z,8.85
2022-09-23T06:25:39.166Z,8.27
2022-09-23T06:28:12.061Z,8.05
2022-09-23T06:30:42.728Z,8.27
2022-09-23T06:33:10.238Z,8.80
2022-09-23T06:35:37.739Z,8.70
2022-09-23T06:38:05.240Z,8.45
2022-09-23T06:40:32.887Z,8.43
2022-09-23T06:43:00.679Z,8.63
2022-09-23T06:45:28.465Z,9.10
2022-09-23T06:47:56.307Z,8.88
2022-09-23T06:50:24.086Z,9.40
2022-09-23T06:52:56.008Z,9.52
2022-09-23T06:55:27.864Z,8.98
2022-09-23T06:57:55.579Z,9.40
2022-09-23T07:00:22.730Z,8.45
2022-09-23T07:02:50.008Z,9.52
2022-09-23T07:05:17.273Z,10.15
2022-09-23T07:07:45.161Z,9.77
2022-09-23T07:10:12.752Z,9.35
2022-09-23T07:12:40.270Z,9.75
2022-09-23T07:15:08.311Z,9.68
2022-09-23T07:17:35.559Z,9.30
2022-09-23T07:20:02.998Z,9.48
2022-09-23T07:22:30.231Z,9.60
2022-09-23T07:24:57.351Z,8.80
2022-09-23T07:27:25.288Z,9.13
2022-09-23T07:29:53.027Z,8.40
2022-09-23T07:32:21.877Z,9.23
2022-09-23T07:34:49.945Z,8.93
2022-09-23T07:37:18.163Z,9.18
2022-09-23T07:39:46.046Z,9.20
2022-09-23T07:42:14.213Z,8.15
2022-09-23T07:44:46.778Z,8.80
2022-09-23T07:47:14.243Z,8.85
2022-09-23T07:49:41.752Z,9.27
2022-09-23T07:52:09.351Z,9.68
2022-09-23T07:54:36.786Z,9.40
2022-09-23T07:57:03.830Z,8.68
2022-09-23T07:59:31.763Z,8.05
2022-09-23T08:01:59.085Z,8.45
2022-09-23T08:04:31.667Z,7.40
2022-09-23T08:07:00.651Z,8.23
2022-09-23T08:09:32.128Z,7.25
2022-09-23T08:11:59.321Z,7.03
2022-09-23T08:14:27.984Z,7.32
2022-09-23T08:16:55.178Z,7.07
2022-09-23T08:19:22.208Z,7.85
2022-09-23T08:21:52.014Z,6.55
2022-09-23T08:24:20.850Z,7.07
2022-09-23T08:26:48.702Z,6.68
2022-09-23T08:29:16.701Z,6.45
2022-09-23T08:31:44.123Z,7.07
2022-09-23T08:34:11.599Z,6.15
2022-09-23T08:36:38.955Z,6.57
2022-09-23T08:39:07.029Z,7.00
2022-09-23T08:41:52.879Z,6.20
2022-09-23T08:44:44.196Z,6.65
2022-09-23T08:47:14.896Z,6.45
2022-09-23T08:50:02.711Z,6.20
2022-09-23T08:52:34.392Z,6.03
2022-09-23T08:55:03.116Z,7.07
2022-09-23T08:58:02.342Z,5.70
2022-09-23T09:00:45.087Z,6.07
2022-09-23T09:03:20.719Z,6.65
2022-09-23T09:05:54.133Z,5.60
2022-09-23T09:08:48.228Z,6.43
2022-09-23T09:11:16.646Z,5.20
2022-09-23T09:13:54.576Z,5.90
2022-09-23T09:16:59.121Z,6.28
2022-09-23T09:19:57.070Z,6.05
2022-09-23T09:22:29.955Z,6.35
2022-09-23T09:25:00.007Z,6.13
2022-09-23T09:27:27.171Z,5.50
2022-09-23T09:29:55.487Z,5.75
2022-09-23T09:32:29.053Z,6.22
2022-09-23T09:34:58.983Z,5.13
2022-09-23T09:37:31.636Z,5.13
2022-09-23T09:39:59.183Z,6.30
2022-09-23T09:42:40.308Z,5.18
2022-09-23T09:45:11.020Z,5.30
2022-09-23T09:47:56.549Z,6.20
2022-09-23T09:50:41.739Z,5.60
2022-09-23T09:53:23.805Z,5.55
2022-09-23T09:56:10.395Z,5.75
2022-09-23T09:58:43.817Z,4.97
2022-09-23T10:01:20.235Z,5.38
2022-09-23T10:03:48.105Z,5.38
2022-09-23T10:06:18.333Z,5.55
2022-09-23T10:08:49.167Z,5.38
2022-09-23T10:11:17.651Z,5.40
2022-09-23T10:14:04.046Z,5.10
2022-09-23T10:16:32.294Z,5.15
2022-09-23T10:19:00.707Z,4.72
2022-09-23T10:21:34.517Z,5.03
2022-09-23T10:24:02.935Z,5.57
2022-09-23T10:26:32.954Z,5.18
2022-09-23T10:29:05.188Z,5.03
2022-09-23T10:31:33.711Z,5.10
2022-09-23T10:34:04.820Z,5.07
2022-09-23T10:36:32.740Z,5.40
2022-09-23T10:39:22.534Z,5.18
2022-09-23T10:42:15.626Z,4.72
2022-09-23T10:45:13.167Z,5.13
2022-09-23T10:47:49.736Z,4.55
2022-09-23T10:50:16.775Z,5.00
2022-09-23T10:52:56.977Z,5.60
2022-09-23T10:55:27.549Z,4.78
2022-09-23T10:58:05.831Z,5.30
2022-09-23T11:00:44.654Z,5.30
2022-09-23T11:03:31.756Z,4.80
2022-09-23T11:06:11.398Z,4.63
2022-09-23T11:08:43.150Z,4.55
2022-09-23T11:11:16.231Z,4.65
2022-09-23T11:13:43.524Z,4.72
2022-09-23T11:16:39.237Z,4.47
2022-09-23T11:19:12.576Z,4.47
2022-09-23T11:21:39.685Z,4.88
2022-09-23T11:24:07.095Z,4.13
2022-09-23T11:26:54.870Z,4.63
2022-09-23T11:29:42.784Z,4.13
2022-09-23T11:32:39.739Z,3.65
2022-09-23T11:35:27.156Z,3.60
2022-09-23T11:38:16.475Z,3.67
2022-09-23T11:40:46.541Z,3.40
2022-09-23T11:43:17.795Z,3.75
2022-09-23T11:45:52.988Z,4.00
2022-09-23T11:48:26.142Z,3.70
2022-09-23T11:53:25.199Z,3.22
2022-09-23T11:56:04.584Z,3.83
2022-09-23T11:58:51.418Z,3.63
2022-09-23T12:01:37.024Z,3.25
2022-09-23T12:04:19.336Z,3.30
2022-09-23T12:06:48.859Z,3.00
2022-09-23T12:09:30.976Z,2.58
2022-09-23T12:12:31.313Z,2.80
2022-09-23T12:15:07.466Z,3.28
2022-09-23T12:17:43.497Z,3.03
2022-09-23T12:20:22.645Z,3.38
2022-09-23T12:23:06.833Z,2.83
2022-09-23T12:25:33.825Z,2.70
2022-09-23T12:28:03.697Z,2.95
2022-09-23T12:30:32.679Z,2.83
2022-09-23T12:33:09.366Z,2.80
2022-09-23T12:35:41.436Z,3.28
2022-09-23T12:38:19.324Z,3.00
2022-09-23T12:40:46.721Z,2.97
2022-09-23T12:43:18.073Z,2.60
2022-09-23T12:45:45.923Z,3.05
2022-09-23T12:48:18.979Z,3.38
2022-09-23T12:50:58.938Z,2.65
2022-09-23T12:53:32.063Z,2.90
2022-09-23T12:58:44.657Z,3.03
2022-09-23T13:01:20.555Z,3.13
2022-09-23T13:04:10.490Z,3.75
2022-09-23T13:06:41.846Z,2.92
2022-09-23T13:09:10.975Z,3.17
2022-09-23T13:11:41.577Z,3.40
2022-09-23T13:14:08.739Z,3.50
2022-09-23T13:16:38.450Z,3.13
2022-09-23T13:19:07.228Z,3.28
2022-09-23T13:21:40.518Z,3.40
2022-09-23T13:24:13.479Z,3.35
2022-09-23T13:26:45.582Z,3.33
2022-09-23T13:29:39.445Z,3.45
2022-09-23T13:32:12.064Z,2.75
2022-09-23T13:34:41.226Z,2.63
2022-09-23T13:37:22.234Z,2.38
2022-09-23T13:39:49.848Z,2.58
2022-09-23T13:42:30.741Z,2.83
2022-09-23T13:44:59.316Z,2.72
2022-09-23T13:47:28.436Z,3.28
2022-09-23T13:49:55.881Z,2.85
2022-09-23T13:52:32.558Z,2.58
2022-09-23T13:54:59.659Z,2.85
2022-09-23T13:57:27.439Z,2.35
2022-09-23T13:59:54.512Z,2.78
2022-09-23T14:02:25.571Z,2.80
2022-09-23T14:04:52.932Z,2.90
2022-09-23T14:07:20.843Z,2.60
2022-09-23T14:09:50.469Z,2.65
2022-09-23T14:12:22.629Z,3.00
2022-09-23T14:14:51.670Z,3.30
2022-09-23T14:17:19.851Z,2.72
2022-09-23T14:19:47.698Z,2.97
2022-09-23T14:22:35.505Z,3.10
2022-09-23T14:25:03.925Z,3.30
2022-09-23T14:27:36.559Z,3.10
2022-09-23T14:30:04.429Z,3.10
2022-09-23T14:32:32.524Z,3.15
2022-09-23T14:35:03.792Z,2.72
2022-09-23T14:37:55.424Z,3.38
2022-09-23T14:40:22.613Z,3.15
2022-09-23T14:42:57.667Z,4.30
2022-09-23T14:45:26.542Z,4.13
2022-09-23T14:48:14.048Z,4.70
2022-09-23T14:50:49.970Z,4.50
2022-09-23T14:53:19.772Z,4.57
2022-09-23T14:55:52.674Z,4.60
2022-09-23T14:58:21.623Z,4.65
2022-09-23T15:00:59.488Z,4.32
2022-09-23T15:03:28.310Z,4.90
2022-09-23T15:06:08.373Z,4.93
2022-09-23T15:08:37.432Z,4.80
2022-09-23T15:11:08.025Z,5.18
2022-09-23T15:13:38.865Z,5.05
2022-09-23T15:16:06.573Z,5.00
2022-09-23T15:18:38.511Z,5.45
2022-09-23T15:21:10.562Z,4.70
2022-09-23T15:23:43.712Z,4.70
2022-09-23T15:28:37.891Z,4.78
2022-09-23T15:31:05.841Z,4.45
2022-09-23T15:33:34.298Z,4.78
2022-09-23T15:36:01.537Z,5.28
2022-09-23T15:38:28.606Z,4.78
2022-09-23T15:40:55.809Z,4.70
2022-09-23T15:43:24.458Z,5.03
2022-09-23T15:45:57.007Z,4.93
2022-09-23T15:48:27.038Z,5.13
2022-09-23T15:50:54.500Z,4.85
2022-09-23T15:53:27.168Z,5.50
2022-09-23T15:55:54.366Z,5.50
2022-09-23T15:58:21.993Z,5.78
2022-09-23T16:00:56.039Z,5.55
2022-09-23T16:03:28.789Z,6.03
2022-09-23T16:06:00.550Z,6.00
2022-09-23T16:08:27.971Z,5.82
2022-09-23T16:10:55.453Z,5.63
2022-09-23T16:13:22.996Z,5.80
2022-09-23T16:15:50.288Z,5.85
2022-09-23T16:18:18.025Z,6.45
2022-09-23T16:20:46.436Z,6.28
2022-09-23T16:23:37.523Z,6.78
2022-09-23T16:26:13.787Z,6.68
2022-09-23T16:28:40.787Z,7.55
2022-09-23T16:31:07.862Z,6.88
2022-09-23T16:33:34.944Z,7.15
2022-09-23T16:36:02.563Z,6.40
2022-09-23T16:38:29.969Z,6.35
2022-09-23T16:41:00.976Z,6.93
2022-09-23T16:43:31.691Z,7.45
2022-09-23T16:45:59.178Z,7.68
2022-09-23T16:48:26.595Z,8.52
2022-09-23T16:50:53.924Z,8.80
2022-09-23T16:53:21.156Z,8.45
2022-09-23T16:55:48.371Z,9.32
2022-09-23T16:58:15.486Z,10.15
2022-09-23T17:01:01.420Z,10.40
2022-09-23T17:03:40.986Z,11.15
2022-09-23T17:06:14.728Z,11.32
2022-09-23T17:08:42.723Z,10.52
2022-09-23T17:11:11.001Z,10.68
2022-09-23T17:13:40.962Z,9.45
2022-09-23T17:16:08.261Z,10.02
2022-09-23T17:18:35.495Z,9.40
2022-09-23T17:21:03.760Z,9.07
2022-09-23T17:23:31.687Z,10.68
2022-09-23T17:25:59.873Z,10.18
2022-09-23T17:28:27.517Z,9.18
2022-09-23T17:30:58.430Z,9.60
2022-09-23T17:33:30.317Z,9.10
2022-09-23T17:35:57.750Z,9.45
2022-09-23T17:38:28.893Z,9.65
2022-09-23T17:40:59.027Z,11.02
2022-09-23T17:43:26.317Z,12.70
2022-09-23T17:45:54.451Z,12.40
2022-09-23T17:48:22.349Z,12.77
2022-09-23T17:50:55.736Z,12.30
2022-09-23T17:53:23.300Z,12.80
2022-09-23T17:56:00.684Z,12.10
2022-09-23T17:58:29.588Z,11.95
2022-09-23T18:00:57.517Z,12.93
2022-09-23T18:03:28.910Z,13.27
2022-09-23T18:06:05.646Z,12.45
2022-09-23T18:08:32.784Z,11.70
2022-09-23T18:10:59.820Z,12.10
2022-09-23T18:13:26.829Z,12.00
2022-09-23T18:15:54.436Z,11.38
2022-09-23T18:18:21.695Z,11.10
2022-09-23T18:20:48.787Z,11.70
2022-09-23T18:23:15.775Z,12.35
2022-09-23T18:25:42.815Z,13.43
2022-09-23T18:28:09.809Z,12.98
2022-09-23T18:30:36.833Z,13.55
2022-09-23T18:33:03.862Z,12.52
2022-09-23T18:35:31.066Z,13.75
2022-09-23T18:37:58.211Z,13.35
2022-09-23T18:40:25.626Z,12.82
2022-09-23T18:42:52.860Z,13.80
2022-09-23T18:45:20.179Z,14.65
2022-09-23T18:48:06.780Z,13.23
2022-09-23T18:50:40.489Z,13.20
2022-09-23T18:53:08.151Z,13.18
2022-09-23T18:55:36.130Z,13.93
2022-09-23T18:58:03.490Z,14.55
2022-09-23T19:00:30.635Z,15.40
2022-09-23T19:02:57.753Z,13.82
2022-09-23T19:05:24.771Z,13.48
2022-09-23T19:07:52.288Z,14.70
2022-09-23T19:10:19.732Z,14.57
2022-09-23T19:12:46.898Z,14.02
2022-09-23T19:15:14.559Z,15.25
2022-09-23T19:17:41.634Z,14.32
2022-09-23T19:20:10.093Z,13.27
2022-09-23T19:22:37.122Z,13.55
2022-09-23T19:25:04.266Z,14.85
2022-09-23T19:27:31.350Z,13.32
2022-09-23T19:29:58.516Z,15.52
2022-09-23T19:32:26.668Z,14.77
2022-09-23T19:34:53.678Z,13.70
2022-09-23T19:37:21.180Z,15.18
2022-09-23T19:39:50.060Z,15.38
2022-09-23T19:42:17.091Z,15.23
2022-09-23T19:44:44.147Z,14.85
2022-09-23T19:47:15.708Z,13.77
2022-09-23T19:49:43.035Z,15.50
2022-09-23T19:52:10.203Z,15.05
2022-09-23T19:54:37.659Z,15.50
2022-09-23T19:57:04.688Z,15.82
2022-09-23T19:59:32.651Z,14.95
2022-09-23T20:01:59.920Z,14.85
2022-09-23T20:04:27.243Z,15.30
2022-09-23T20:06:54.546Z,14.60
2022-09-23T20:09:21.652Z,16.23
2022-09-23T20:11:48.739Z,16.02
2022-09-23T20:14:17.730Z,15.77
2022-09-23T20:16:45.515Z,16.13
2022-09-23T20:19:13.188Z,16.00
2022-09-23T20:21:40.633Z,15.63
2022-09-23T20:24:09.802Z,15.68
2022-09-23T20:26:55.721Z,16.00
2022-09-23T20:29:23.251Z,16.40
2022-09-23T20:31:50.678Z,15.48
2022-09-23T20:34:18.503Z,15.57
2022-09-23T20:36:45.508Z,16.05
2022-09-23T20:39:13.305Z,16.35
2022-09-23T20:41:40.551Z,15.40
2022-09-23T20:44:11.608Z,16.00
2022-09-23T20:46:38.910Z,15.63
2022-09-23T20:49:07.867Z,14.90
2022-09-23T20:51:38.139Z,14.48
2022-09-23T20:54:05.444Z,14.27
2022-09-23T20:56:33.603Z,14.75
2022-09-23T20:59:01.641Z,16.35
2022-09-23T21:01:29.335Z,15.05
2022-09-23T21:03:56.603Z,15.63
2022-09-23T21:06:27.158Z,15.38
2022-09-23T21:08:54.877Z,14.93
2022-09-23T21:11:22.640Z,14.48
2022-09-23T21:13:51.140Z,15.80
2022-09-23T21:16:19.687Z,16.58
2022-09-23T21:18:48.114Z,15.30
2022-09-23T21:21:17.594Z,15.02
2022-09-23T21:23:45.159Z,15.02
2022-09-23T21:26:14.047Z,15.50
2022-09-23T21:28:44.690Z,15.55
2022-09-23T21:31:13.124Z,15.40
2022-09-23T21:33:40.279Z,15.27
2022-09-23T21:36:08.009Z,15.18
2022-09-23T21:38:35.942Z,16.05
2022-09-23T21:41:04.129Z,14.43
2022-09-23T21:43:33.145Z,15.82
2022-09-23T21:46:02.296Z,15.30
2022-09-23T21:48:33.565Z,17.13
2022-09-23T21:51:08.599Z,16.65
2022-09-23T21:53:37.021Z,17.20
2022-09-23T21:56:06.038Z,16.38
2022-09-23T21:58:34.430Z,16.70
2022-09-23T22:01:02.373Z,16.90
2022-09-23T22:03:29.732Z,16.63
2022-09-23T22:06:06.224Z,16.17
2022-09-23T22:08:36.690Z,16.10
2022-09-23T22:11:08.365Z,17.17
2022-09-23T22:13:35.774Z,16.33
2022-09-23T22:16:05.199Z,18.75
2022-09-23T22:18:32.696Z,17.65
2022-09-23T22:21:00.202Z,18.27
2022-09-23T22:23:27.251Z,18.42
2022-09-23T22:26:02.275Z,19.42
2022-09-23T22:28:51.526Z,19.83
2022-09-23T22:31:37.800Z,17.42
2022-09-23T22:34:04.981Z,18.77
2022-09-23T22:36:32.084Z,18.75
2022-09-23T22:39:00.503Z,18.45
2022-09-23T22:41:27.581Z,19.42
2022-09-23T22:43:54.738Z,19.70
2022-09-23T22:46:25.160Z,18.63
2022-09-23T22:48:53.319Z,19.65
2022-09-23T22:51:22.176Z,19.70
2022-09-23T22:53:49.648Z,20.80
2022-09-23T22:56:16.678Z,20.40
2022-09-23T22:58:44.082Z,18.45
2022-09-23T23:01:11.746Z,19.77
2022-09-23T23:03:40.443Z,18.98
2022-09-23T23:06:08.273Z,20.30
2022-09-23T23:08:36.055Z,20.88
2022-09-23T23:11:10.026Z,21.77
2022-09-23T23:13:41.702Z,21.30
2022-09-23T23:16:13.234Z,20.15
2022-09-23T23:18:41.631Z,20.73
2022-09-23T23:21:15.979Z,21.40
2022-09-23T23:23:44.214Z,21.45
2022-09-23T23:26:13.136Z,21.52
2022-09-23T23:28:40.900Z,20.52
2022-09-23T23:31:09.058Z,20.50
2022-09-23T23:33:36.483Z,20.38
2022-09-23T23:36:03.889Z,22.08
2022-09-23T23:38:31.081Z,20.52
2022-09-23T23:41:02.010Z,20.73
2022-09-23T23:43:29.132Z,20.40
2022-09-23T23:45:57.053Z,20.05
2022-09-23T23:48:24.081Z,18.80
2022-09-23T23:50:54.609Z,18.30
2022-09-23T23:53:22.939Z,18.50
2022-09-23T23:55:50.357Z,18.38
2022-09-23T23:58:18.082Z,18.83
